ADDS METAR Data INFO
IDs: Format: Raw Decoded Include TAF

Data at: 1053 UTC 20 Sep 2017

KEVW 200953Z AUTO 23009KT 10SM CLR 01/M02 A2999 RMK AO2 SLP137 T00061017
KEVW 200853Z AUTO 22006KT 10SM CLR 02/M02 A3001 RMK AO2 SLP142 T00171022 55002
KEVW 200753Z AUTO 20004KT 10SM BKN080 02/M02 A3000 RMK AO2 SLP140 T00221022
KEVW 200653Z AUTO 17006KT 10SM FEW095 01/M02 A3001 RMK AO2 SLP146 T00111017 400890011
KEVW 200553Z AUTO 00000KT 10SM CLR 03/M01 A3001 RMK AO2 SLP144 T00281011 10083 20028 50004
KEVW 200453Z AUTO 36006KT 10SM CLR 03/M02 A3001 RMK AO2 SLP144 T00331017
KEVW 200353Z AUTO 29008KT 10SM CLR 04/M02 A3000 RMK AO2 SLP140 T00391022
KEVW 200253Z AUTO 27009KT 10SM CLR 04/M02 A3000 RMK AO2 SLP134 T00391022 51008
KEVW 200153Z AUTO 26009KT 10SM SCT070 04/M02 A2999 RMK AO2 SLP122 T00441017
KEVW 200053Z AUTO 24012KT 10SM CLR 07/M02 A2998 RMK AO2 PK WND 27026/2359 SLP106 T00721022
KEVW 192353Z AUTO 27014G26KT 10SM SCT046 SCT055 08/M01 A2997 RMK AO2 PK WND 26026/2345 SLP099 60000 T00831011 10089 20028 51001
KEVW 192253Z AUTO 24014KT 10SM BKN035 OVC042 07/01 A2997 RMK AO2 SLP102 T00670011
KEVW 192217Z AUTO 24011G18KT 10SM FEW023 BKN034 OVC045 06/01 A2997 RMK AO2 T00610011
KEVW 192153Z AUTO 22007G16KT 10SM FEW022 BKN029 BKN034 05/02 A2997 RMK AO2 RAB2056E04 SLP109 P0000 T00500017
KEVW 192053Z AUTO 23013KT 9SM SCT022 BKN035 OVC045 03/01 A2997 RMK AO2 RAB26E37SNE1959B37E51 SLP114 P0000 60000 T00330011 50002
KEVW 192014Z AUTO 24011KT 10SM FEW017 BKN030 OVC043 03/01 A2998 RMK AO2 SNE1959 P0000 T00330011
KEVW 191953Z AUTO 24013KT 9SM -SN SCT018 BKN024 OVC029 03/01 A2998 RMK AO2 RAE24SNB24 SLP118 P0000 T00280011
KEVW 191853Z AUTO 26006KT 10SM -RA FEW013 BKN025 OVC030 03/02 A2998 RMK AO2 RAB02E32B49SNB32E49 SLP114 P0000 T00280017
KEVW 191836Z AUTO 30007KT 10SM -SN FEW017 BKN026 OVC032 03/01 A2998 RMK AO2 RAB02E32SNB32 P0000 T00280011
KEVW 191828Z AUTO 28010KT 10SM -RA SCT026 BKN033 OVC041 03/02 A2998 RMK AO2 RAB02 P0000 T00330017
KEVW 191810Z AUTO 26011KT 10SM -RA BKN028 BKN036 OVC044 03/01 A2997 RMK AO2 RAB02 P0000 T00330011
KEVW 191753Z AUTO 26008KT 10SM FEW026 BKN032 OVC046 03/02 A2997 RMK AO2 SNE05 SLP106 P0000 6//// T00280022 10072 20011 51021
KEVW 191735Z AUTO 21004KT 10SM SCT006 BKN026 OVC034 02/02 A2997 RMK AO2 SNE05 P0000 T00220022
KEVW 191711Z AUTO 00000KT 10SM SCT007 BKN010 OVC020 02/02 A2996 RMK AO2 SNE05 P0000 T00170017
KEVW 191703Z AUTO 00000KT 8SM -SN BKN004 BKN010 OVC022 02/02 A2995 RMK AO2 P0000 T00170017
KEVW 191653Z AUTO 33004KT 2SM -SN BR SCT004 BKN008 OVC021 02/01 A2995 RMK AO2 SLP102 P0000 T00170011
KEVW 191649Z AUTO 31004KT 1 3/4SM -SN BR SCT004 BKN008 OVC021 01/01 A2995 RMK AO2 P0000
KEVW 191637Z AUTO 33003KT 1 3/4SM -SN BR FEW004 BKN021 OVC026 01/01 A2995 RMK AO2 P0000 T00110011
KEVW 191632Z AUTO 33007KT 1 1/2SM -SN BR FEW015 BKN021 OVC034 01/01 A2995 RMK AO2 P0000 T00110011
KEVW 191625Z AUTO 32008KT 2SM -SN BR FEW015 BKN023 OVC032 01/01 A2995 RMK AO2 P0000 T00110011
KEVW 191607Z AUTO 32010KT 4SM -SN BR FEW007 BKN017 OVC026 02/02 A2993 RMK AO2 P0000 T00170017
KEVW 191553Z AUTO 32009KT 2SM -SN BR FEW005 OVC015 02/01 A2993 RMK AO2 RAB21E38SNB38 SLP080 P0000 T00170011
KEVW 191540Z AUTO 34011KT 7SM -SN SCT005 SCT010 OVC021 02/02 A2993 RMK AO2 RAB21E38SNB38 P0000 T00220017
KEVW 191453Z AUTO 33012KT 10SM OVC026 03/02 A2989 RMK AO1 SLP064 6//// T00280022 53018
KEVW 191440Z AUTO 32012KT 7SM BKN028 OVC049 03/03 A2989 RMK AO1 T00330028
KEVW 191427Z AUTO 30013G18KT 9SM FEW022 BKN035 OVC048 04/03 A2989 RMK AO1 T00390028
KEVW 191353Z AUTO 29011KT 4SM BR FEW007 OVC029 06/05 A2987 RMK AO1 SLP049 T00560050
KEVW 191343Z AUTO 29014KT 7SM OVC029 06/05 A2986 RMK AO1 T00560050
KEVW 191333Z AUTO 29014G20KT 8SM OVC031 06/05 A2985 RMK AO1 T00610050
KEVW 191253Z AUTO 28010KT 8SM FEW012 BKN020 OVC050 07/07 A2984 RMK AO1 RAE29 CIG 015V026 SLP030 T00720067
KEVW 191153Z AUTO 23014KT 10SM -RA FEW042 OVC055 07/06 A2983 RMK AO2 RAB09 SLP023 6//// 7//// T00720061 10100 20072 58004 PNO $
KEVW 191053Z AUTO 22011KT 10SM FEW043 BKN070 OVC085 07/06 A2983 RMK AO2 RAE46 SLP018 T00720061 PNO $
KEVW 190953Z AUTO 24011KT 10SM -RA BKN041 OVC065 07/07 A2986 RMK AO2 RAB22 SLP029 T00720067 PNO $
KEVW 190853Z AUTO 24007KT 10SM FEW037 OVC065 07/07 A2984 RMK AO2 RAE39 SLP023 P0000 60000 T00720067 58009
KEVW 190753Z AUTO 29015KT 8SM -RA FEW021 BKN031 OVC055 08/07 A2988 RMK AO2 RAB19 SLP035 P0000 T00780067
KEVW 190719Z AUTO 34008KT 10SM -RA FEW011 SCT025 OVC060 08/07 A2985 RMK AO2 RAB19 P0000 T00830072
KEVW 190701Z AUTO 33011KT 10SM FEW012 BKN023 OVC060 09/07 A2986 RMK AO2 T00890067
KEVW 190653Z AUTO 33009KT 10SM FEW012 SCT017 OVC060 09/08 A2986 RMK AO2 RAB03E50 SLP028 P0000 T00940078 402220078
KEVW 190553Z AUTO 32005KT 10SM BKN055 OVC070 10/08 A2988 RMK AO2 RAE47 SLP036 P0000 60000 T01000078 10194 20100 51011
KEVW 190453Z AUTO 26016KT 10SM -RA SCT055 OVC070 11/07 A2986 RMK AO2 PK WND 26045/0402 SLP031 P0000 T01060072
KEVW 190353Z AUTO 26031G41KT 10SM -RA SCT060 BKN075 OVC090 16/01 A2986 RMK AO2 PK WND 25041/0351 RAB53 SLP026 P0000 T01610011
KEVW 190253Z AUTO 21018G25KT 10SM BKN100 16/M01 A2984 RMK AO2 PK WND 20029/0155 SLP026 T01611011 56021
KEVW 190153Z AUTO 21025G32KT 10SM CLR 17/M01 A2985 RMK AO2 PK WND 21038/0111 SLP035 T01671011
KEVW 190053Z AUTO 21025G33KT 10SM CLR 18/M02 A2988 RMK AO2 PK WND 21034/0028 SLP042 T01831017
KEVW 182353Z AUTO 21020G30KT 10SM CLR 19/M01 A2991 RMK AO2 PK WND 22034/2319 SLP051 T01941006 10222 20189 58019